createdAt,value
2023-03-18T00:01:57.479Z,1.05
2023-03-18T00:05:00.403Z,1.02
2023-03-18T00:08:04.815Z,1.02
2023-03-18T00:11:08.763Z,0.98
2023-03-18T00:14:11.322Z,0.99
2023-03-18T00:17:14.018Z,0.97
2023-03-18T00:20:18.661Z,0.97
2023-03-18T00:23:22.593Z,0.95
2023-03-18T00:26:26.025Z,0.91
2023-03-18T00:29:28.713Z,0.89
2023-03-18T00:32:31.704Z,0.85
2023-03-18T00:35:34.656Z,0.95
2023-03-18T00:38:37.561Z,0.94
2023-03-18T00:41:40.201Z,0.93
2023-03-18T00:44:44.255Z,0.95
2023-03-18T00:47:49.628Z,0.95
2023-03-18T00:50:52.273Z,0.92
2023-03-18T00:53:57.709Z,0.90
2023-03-18T00:57:00.724Z,0.86
2023-03-18T01:00:07.220Z,1.06
2023-03-18T01:03:09.956Z,1.21
2023-03-18T01:06:14.558Z,1.30
2023-03-18T01:09:17.135Z,1.37
2023-03-18T01:12:19.670Z,1.50
2023-03-18T01:15:23.457Z,1.55
2023-03-18T01:18:26.263Z,1.61
2023-03-18T01:21:28.927Z,1.63
2023-03-18T01:24:36.798Z,1.66
2023-03-18T01:27:40.953Z,1.70
2023-03-18T01:30:44.377Z,1.72
2023-03-18T01:33:48.081Z,1.76
2023-03-18T01:36:50.898Z,1.77
2023-03-18T01:39:55.585Z,1.67
2023-03-18T01:43:13.477Z,1.34
2023-03-18T01:46:39.602Z,1.06
2023-03-18T01:49:50.348Z,1.09
2023-03-18T01:52:56.535Z,1.19
2023-03-18T01:56:01.504Z,1.17
2023-03-18T01:59:05.155Z,1.00
2023-03-18T02:02:10.522Z,0.84
2023-03-18T02:05:20.789Z,0.84
2023-03-18T02:08:23.663Z,0.86
2023-03-18T02:11:27.331Z,0.86
2023-03-18T02:14:33.248Z,0.86
2023-03-18T02:17:39.436Z,0.87
2023-03-18T02:20:52.584Z,0.85
2023-03-18T02:24:20.066Z,0.86
2023-03-18T02:27:27.617Z,0.79
2023-03-18T02:30:43.707Z,0.85
2023-03-18T02:33:48.434Z,0.78
2023-03-18T02:36:51.244Z,0.77
2023-03-18T02:39:53.755Z,0.74
2023-03-18T02:43:20.584Z,0.75
2023-03-18T02:46:47.128Z,0.75
2023-03-18T02:49:50.263Z,0.68
2023-03-18T02:52:52.921Z,0.58
2023-03-18T02:55:58.434Z,0.63
2023-03-18T02:59:02.103Z,0.59
2023-03-18T03:02:04.821Z,0.64
2023-03-18T03:05:09.378Z,0.65
2023-03-18T03:08:12.247Z,0.64
2023-03-18T03:11:19.313Z,0.60
2023-03-18T03:14:22.556Z,0.72
2023-03-18T03:17:29.346Z,0.73
2023-03-18T03:20:37.687Z,0.68
2023-03-18T03:23:40.456Z,0.67
2023-03-18T03:26:43.220Z,0.67
2023-03-18T03:29:47.369Z,0.53
2023-03-18T03:32:50.254Z,0.58
2023-03-18T03:35:52.831Z,0.59
2023-03-18T03:38:55.721Z,0.57
2023-03-18T03:41:58.505Z,0.62
2023-03-18T03:45:01.303Z,0.70
2023-03-18T03:48:04.307Z,0.66
2023-03-18T03:51:07.731Z,0.64
2023-03-18T03:54:13.390Z,0.57
2023-03-18T03:57:17.112Z,0.67
2023-03-18T04:00:21.430Z,0.73
2023-03-18T04:03:25.840Z,0.67
2023-03-18T04:06:28.826Z,0.70
2023-03-18T04:09:36.853Z,0.82
2023-03-18T04:12:40.046Z,0.84
2023-03-18T04:15:43.212Z,0.97
2023-03-18T04:18:50.344Z,0.92
2023-03-18T04:21:54.191Z,0.85
2023-03-18T04:24:56.963Z,0.92
2023-03-18T04:27:59.794Z,0.99
2023-03-18T04:31:02.557Z,1.01
2023-03-18T04:34:05.485Z,1.13
2023-03-18T04:37:09.149Z,1.21
2023-03-18T04:40:14.268Z,1.22
2023-03-18T04:43:17.120Z,1.28
2023-03-18T04:46:22.552Z,1.29
2023-03-18T04:49:26.057Z,1.33
2023-03-18T04:52:30.682Z,1.33
2023-03-18T04:55:34.380Z,1.39
2023-03-18T04:58:39.617Z,1.43
2023-03-18T05:01:50.432Z,1.47
2023-03-18T05:04:53.931Z,1.50
2023-03-18T05:07:57.202Z,1.55
2023-03-18T05:11:00.120Z,1.56
2023-03-18T05:14:03.399Z,1.56
2023-03-18T05:17:17.559Z,1.67
2023-03-18T05:20:29.861Z,1.66
2023-03-18T05:23:34.602Z,1.90
2023-03-18T05:26:39.058Z,2.15
2023-03-18T05:29:43.676Z,2.22
2023-03-18T05:32:54.205Z,2.30
2023-03-18T05:36:07.955Z,2.42
2023-03-18T05:39:16.468Z,2.49
2023-03-18T05:42:19.990Z,2.55
2023-03-18T05:45:23.286Z,2.66
2023-03-18T05:48:30.331Z,2.69
2023-03-18T05:51:38.255Z,2.83
2023-03-18T05:54:44.808Z,3.00
2023-03-18T05:57:49.892Z,3.17
2023-03-18T06:00:53.878Z,3.37
2023-03-18T06:03:56.658Z,3.45
2023-03-18T06:06:59.381Z,3.73
2023-03-18T06:10:02.059Z,3.85
2023-03-18T06:13:04.851Z,4.07
2023-03-18T06:16:08.906Z,4.22
2023-03-18T06:19:12.259Z,4.34
2023-03-18T06:22:15.690Z,4.33
2023-03-18T06:25:20.281Z,4.41
2023-03-18T06:28:24.952Z,4.68
2023-03-18T06:31:28.338Z,4.74
2023-03-18T06:34:31.902Z,4.74
2023-03-18T06:37:34.926Z,4.79
2023-03-18T06:40:38.023Z,5.01
2023-03-18T06:43:42.002Z,5.26
2023-03-18T06:46:45.430Z,5.24
2023-03-18T06:49:49.964Z,5.39
2023-03-18T06:52:56.849Z,5.58
2023-03-18T06:56:06.292Z,5.57
2023-03-18T06:59:21.827Z,5.75
2023-03-18T07:02:25.311Z,5.74
2023-03-18T07:05:30.959Z,5.79
2023-03-18T07:08:33.975Z,5.96
2023-03-18T07:11:37.384Z,6.03
2023-03-18T07:14:45.791Z,6.28
2023-03-18T07:17:50.735Z,6.20
2023-03-18T07:20:54.628Z,5.99
2023-03-18T07:23:59.643Z,6.22
2023-03-18T07:27:02.427Z,6.29
2023-03-18T07:30:05.370Z,6.67
2023-03-18T07:33:09.005Z,6.61
2023-03-18T07:36:13.790Z,6.50
2023-03-18T07:39:16.536Z,6.57
2023-03-18T07:42:19.607Z,6.51
2023-03-18T07:45:22.303Z,6.52
2023-03-18T07:48:25.539Z,6.33
2023-03-18T07:51:28.264Z,6.33
2023-03-18T07:54:31.043Z,6.59
2023-03-18T07:57:33.678Z,6.54
2023-03-18T08:00:36.365Z,6.45
2023-03-18T08:03:38.973Z,6.74
2023-03-18T08:06:41.769Z,6.73
2023-03-18T08:09:44.381Z,7.04
2023-03-18T08:12:53.173Z,6.90
2023-03-18T08:15:56.655Z,6.98
2023-03-18T08:19:02.602Z,6.90
2023-03-18T08:22:05.299Z,7.18
2023-03-18T08:25:08.434Z,7.50
2023-03-18T08:28:11.962Z,7.33
2023-03-18T08:31:14.822Z,7.34
2023-03-18T08:34:20.425Z,7.21
2023-03-18T08:37:23.273Z,7.32
2023-03-18T08:40:27.155Z,7.40
2023-03-18T08:43:30.221Z,7.71
2023-03-18T08:46:33.125Z,7.43
2023-03-18T08:49:35.943Z,7.48
2023-03-18T08:52:38.925Z,7.78
2023-03-18T08:55:42.240Z,7.87
2023-03-18T08:58:46.101Z,7.72
2023-03-18T09:01:49.485Z,7.91
2023-03-18T09:04:54.546Z,8.00
2023-03-18T09:07:58.881Z,7.92
2023-03-18T09:11:01.735Z,8.24
2023-03-18T09:14:04.799Z,8.05
2023-03-18T09:17:07.820Z,8.43
2023-03-18T09:20:13.046Z,8.92
2023-03-18T09:23:15.958Z,8.80
2023-03-18T09:26:18.795Z,8.76
2023-03-18T09:29:21.741Z,8.87
2023-03-18T09:32:24.308Z,9.37
2023-03-18T09:35:29.291Z,9.51
2023-03-18T09:38:32.717Z,9.20
2023-03-18T09:41:50.579Z,9.22
2023-03-18T09:44:59.881Z,9.41
2023-03-18T09:48:11.753Z,9.66
2023-03-18T09:51:33.564Z,9.13
2023-03-18T09:54:45.058Z,9.46
2023-03-18T09:57:48.889Z,9.52
2023-03-18T10:00:59.522Z,9.69
2023-03-18T10:04:21.798Z,9.96
2023-03-18T10:07:30.320Z,9.85
2023-03-18T10:10:38.072Z,9.82
2023-03-18T10:13:47.067Z,9.73
2023-03-18T10:17:06.322Z,10.02
2023-03-18T10:20:29.190Z,10.04
2023-03-18T10:24:19.659Z,10.26
2023-03-18T10:27:53.869Z,10.27
2023-03-18T10:31:22.729Z,10.08
2023-03-18T10:34:38.045Z,10.19
2023-03-18T10:38:21.910Z,10.55
2023-03-18T10:41:27.048Z,10.67
2023-03-18T10:44:36.992Z,10.65
2023-03-18T10:47:42.328Z,10.62
2023-03-18T10:51:12.889Z,10.49
2023-03-18T10:54:50.685Z,10.66
2023-03-18T10:57:53.227Z,10.62
2023-03-18T11:00:56.254Z,10.54
2023-03-18T11:04:01.842Z,10.58
2023-03-18T11:07:08.150Z,10.62
2023-03-18T11:10:18.342Z,10.74
2023-03-18T11:13:22.415Z,11.24
2023-03-18T11:16:30.794Z,11.31
2023-03-18T11:20:01.003Z,11.22
2023-03-18T11:23:13.867Z,11.65
2023-03-18T11:26:24.281Z,11.52
2023-03-18T11:29:33.235Z,11.65
2023-03-18T11:32:37.516Z,11.74
2023-03-18T11:35:48.439Z,12.10
2023-03-18T11:39:05.890Z,11.81
2023-03-18T11:42:26.725Z,11.79
2023-03-18T11:45:44.752Z,11.89
2023-03-18T11:48:47.396Z,11.75
2023-03-18T11:52:05.396Z,11.90
2023-03-18T11:55:18.880Z,12.06
2023-03-18T11:58:28.827Z,12.03
2023-03-18T12:01:57.947Z,12.40
2023-03-18T12:05:12.956Z,12.41
2023-03-18T12:08:22.942Z,12.79
2023-03-18T12:11:28.978Z,12.38
2023-03-18T12:14:31.514Z,12.68
2023-03-18T12:17:45.333Z,13.00
2023-03-18T12:20:55.692Z,12.83
2023-03-18T12:24:04.307Z,12.90
2023-03-18T12:27:25.144Z,12.74
2023-03-18T12:30:37.123Z,12.93
2023-03-18T12:33:58.574Z,12.62
2023-03-18T12:37:20.069Z,12.48
2023-03-18T12:40:41.616Z,13.04
2023-03-18T12:44:06.931Z,12.69
2023-03-18T12:47:21.579Z,12.88
2023-03-18T12:50:54.255Z,13.27
2023-03-18T12:54:01.121Z,13.54
2023-03-18T12:57:13.069Z,13.68
2023-03-18T13:00:28.425Z,13.52
2023-03-18T13:03:35.704Z,13.59
2023-03-18T13:06:42.540Z,13.29
2023-03-18T13:10:14.689Z,13.53
2023-03-18T13:13:17.568Z,13.51
2023-03-18T13:16:22.339Z,13.41
2023-03-18T13:19:26.433Z,13.33
2023-03-18T13:23:01.922Z,13.46
2023-03-18T13:26:34.987Z,13.32
2023-03-18T13:29:53.348Z,13.07
2023-03-18T13:33:14.824Z,13.56
2023-03-18T13:36:17.658Z,13.69
2023-03-18T13:39:42.477Z,13.19
2023-03-18T13:42:45.942Z,13.24
2023-03-18T13:45:53.895Z,13.35
2023-03-18T13:48:59.143Z,13.26
2023-03-18T13:52:04.311Z,13.50
2023-03-18T13:55:33.242Z,13.20
2023-03-18T13:58:48.430Z,13.15
2023-03-18T14:01:51.431Z,13.09
2023-03-18T14:04:54.728Z,13.09
2023-03-18T14:07:57.602Z,13.27
2023-03-18T14:11:23.288Z,13.20
2023-03-18T14:14:54.158Z,13.29
2023-03-18T14:17:59.007Z,13.57
2023-03-18T14:21:03.702Z,13.52
2023-03-18T14:24:18.495Z,13.40
2023-03-18T14:27:23.008Z,13.30
2023-03-18T14:30:35.020Z,13.45
2023-03-18T14:34:10.496Z,13.28
2023-03-18T14:37:21.282Z,12.98
2023-03-18T14:40:23.993Z,13.14
2023-03-18T14:43:45.263Z,13.06
2023-03-18T14:46:51.919Z,13.21
2023-03-18T14:50:04.418Z,13.07
2023-03-18T14:53:17.416Z,12.87
2023-03-18T14:56:22.983Z,12.95
2023-03-18T14:59:25.883Z,12.89
2023-03-18T15:02:34.618Z,12.92
2023-03-18T15:05:42.622Z,12.80
2023-03-18T15:09:19.624Z,12.79
2023-03-18T15:12:28.559Z,12.69
2023-03-18T15:15:32.664Z,12.67
2023-03-18T15:18:38.315Z,12.61
2023-03-18T15:21:41.559Z,12.77
2023-03-18T15:24:44.349Z,12.53
2023-03-18T15:27:48.594Z,12.18
2023-03-18T15:30:54.735Z,12.47
2023-03-18T15:34:15.611Z,12.30
2023-03-18T15:37:24.370Z,12.39
2023-03-18T15:40:33.535Z,12.33
2023-03-18T15:43:42.832Z,12.50
2023-03-18T15:46:48.610Z,12.46
2023-03-18T15:50:02.495Z,12.34
2023-03-18T15:53:25.916Z,12.35
2023-03-18T15:56:32.268Z,12.43
2023-03-18T15:59:35.776Z,12.41
2023-03-18T16:02:38.672Z,12.27
2023-03-18T16:05:41.937Z,12.03
2023-03-18T16:08:46.387Z,11.80
2023-03-18T16:12:08.955Z,11.60
2023-03-18T16:15:24.306Z,11.60
2023-03-18T16:18:27.367Z,11.63
2023-03-18T16:21:30.192Z,11.46
2023-03-18T16:24:32.894Z,11.36
2023-03-18T16:27:42.038Z,11.29
2023-03-18T16:30:45.208Z,11.29
2023-03-18T16:33:50.366Z,11.22
2023-03-18T16:36:53.838Z,11.24
2023-03-18T16:39:57.729Z,11.11
2023-03-18T16:43:00.586Z,11.01
2023-03-18T16:46:06.724Z,10.93
2023-03-18T16:49:21.525Z,10.81
2023-03-18T16:52:24.242Z,10.70
2023-03-18T16:55:27.130Z,10.71
2023-03-18T16:58:35.670Z,10.50
2023-03-18T17:01:38.781Z,10.38
2023-03-18T17:04:43.087Z,10.31
2023-03-18T17:07:45.923Z,10.26
2023-03-18T17:10:51.725Z,10.07
2023-03-18T17:13:54.933Z,9.91
2023-03-18T17:17:00.155Z,9.66
2023-03-18T17:20:04.614Z,9.50
2023-03-18T17:23:09.850Z,9.40
2023-03-18T17:26:15.277Z,9.26
2023-03-18T17:29:27.056Z,9.10
2023-03-18T17:32:29.947Z,8.87
2023-03-18T17:35:33.218Z,8.70
2023-03-18T17:38:36.762Z,8.49
2023-03-18T17:41:40.046Z,8.38
2023-03-18T17:44:42.736Z,8.20
2023-03-18T17:47:46.081Z,8.07
2023-03-18T17:50:54.040Z,7.91
2023-03-18T17:53:59.459Z,7.77
2023-03-18T17:57:04.003Z,7.69
2023-03-18T18:00:24.731Z,7.55
2023-03-18T18:03:29.609Z,7.47
2023-03-18T18:06:33.936Z,7.41
2023-03-18T18:09:36.859Z,7.33
2023-03-18T18:12:39.517Z,7.26
2023-03-18T18:15:42.612Z,7.32
2023-03-18T18:18:47.762Z,7.21
2023-03-18T18:21:53.436Z,7.11
2023-03-18T18:24:58.029Z,7.09
2023-03-18T18:28:01.308Z,7.04
2023-03-18T18:31:07.848Z,7.00
2023-03-18T18:34:10.703Z,6.92
2023-03-18T18:37:14.258Z,6.88
2023-03-18T18:40:18.324Z,6.74
2023-03-18T18:43:22.476Z,6.76
2023-03-18T18:46:26.719Z,6.70
2023-03-18T18:49:29.540Z,6.59
2023-03-18T18:52:34.333Z,6.66
2023-03-18T18:55:37.329Z,6.66
2023-03-18T18:58:40.597Z,6.75
2023-03-18T19:01:43.329Z,6.76
2023-03-18T19:04:46.885Z,6.69
2023-03-18T19:07:50.571Z,6.53
2023-03-18T19:10:59.254Z,6.51
2023-03-18T19:14:24.834Z,6.41
2023-03-18T19:17:27.743Z,6.36
2023-03-18T19:20:31.182Z,6.39
2023-03-18T19:23:35.449Z,6.40
2023-03-18T19:26:38.232Z,6.42
2023-03-18T19:29:44.826Z,6.32
2023-03-18T19:32:47.771Z,6.37
2023-03-18T19:35:51.524Z,6.28
2023-03-18T19:38:55.879Z,6.29
2023-03-18T19:41:59.083Z,6.16
2023-03-18T19:45:02.180Z,6.06
2023-03-18T19:48:05.109Z,5.97
2023-03-18T19:51:08.863Z,5.86
2023-03-18T19:54:21.765Z,5.92
2023-03-18T19:57:27.904Z,5.91
2023-03-18T20:00:31.109Z,5.95
2023-03-18T20:03:34.651Z,6.00
2023-03-18T20:06:37.438Z,5.90
2023-03-18T20:09:40.197Z,5.90
2023-03-18T20:12:46.240Z,5.87
2023-03-18T20:15:49.401Z,5.77
2023-03-18T20:18:52.343Z,5.65
2023-03-18T20:21:55.804Z,5.61
2023-03-18T20:24:58.705Z,5.56
2023-03-18T20:28:02.517Z,5.43
2023-03-18T20:31:06.401Z,5.20
2023-03-18T20:34:09.353Z,5.22
2023-03-18T20:37:29.409Z,5.09
2023-03-18T20:40:32.405Z,4.99
2023-03-18T20:43:35.363Z,4.95
2023-03-18T20:46:38.327Z,5.02
2023-03-18T20:49:44.809Z,4.93
2023-03-18T20:52:49.282Z,4.77
2023-03-18T20:55:52.379Z,4.71
2023-03-18T20:58:55.166Z,4.65
2023-03-18T21:01:58.968Z,4.70
2023-03-18T21:05:02.476Z,4.64
2023-03-18T21:08:05.482Z,4.57
2023-03-18T21:11:19.425Z,4.46
2023-03-18T21:14:22.204Z,4.35
2023-03-18T21:17:28.732Z,4.32
2023-03-18T21:20:32.772Z,4.30
2023-03-18T21:23:36.871Z,4.31
2023-03-18T21:26:39.807Z,4.38
2023-03-18T21:29:43.034Z,4.34
2023-03-18T21:32:46.544Z,4.29
2023-03-18T21:35:52.239Z,4.28
2023-03-18T21:38:55.083Z,4.24
2023-03-18T21:41:57.795Z,4.28
2023-03-18T21:45:00.753Z,4.27
2023-03-18T21:48:03.480Z,4.30
2023-03-18T21:51:08.201Z,4.34
2023-03-18T21:54:20.220Z,4.45
2023-03-18T21:57:23.919Z,4.54
2023-03-18T22:00:27.285Z,4.54
2023-03-18T22:03:30.610Z,4.61
2023-03-18T22:06:34.472Z,4.75
2023-03-18T22:09:37.819Z,4.72
2023-03-18T22:12:40.849Z,4.68
2023-03-18T22:15:44.151Z,4.76
2023-03-18T22:18:47.894Z,4.57
2023-03-18T22:21:50.481Z,4.30
2023-03-18T22:24:54.450Z,4.12
2023-03-18T22:27:59.050Z,4.03
2023-03-18T22:31:03.322Z,3.97
2023-03-18T22:34:23.108Z,3.85
2023-03-18T22:37:26.651Z,3.74
2023-03-18T22:40:31.507Z,3.65
2023-03-18T22:43:38.051Z,3.70
2023-03-18T22:46:40.820Z,3.61
2023-03-18T22:49:44.327Z,3.55
2023-03-18T22:52:48.963Z,3.61
2023-03-18T22:55:54.730Z,3.38
2023-03-18T22:58:57.336Z,3.44
2023-03-18T23:02:00.803Z,3.35
2023-03-18T23:05:03.809Z,3.26
2023-03-18T23:08:06.630Z,3.20
2023-03-18T23:11:09.574Z,3.16
2023-03-18T23:14:12.796Z,3.14
2023-03-18T23:17:20.858Z,3.13
2023-03-18T23:20:23.470Z,3.05
2023-03-18T23:23:28.380Z,3.00
2023-03-18T23:26:33.134Z,2.96
2023-03-18T23:29:36.001Z,3.08
2023-03-18T23:32:39.364Z,3.12
2023-03-18T23:35:43.053Z,2.94
2023-03-18T23:38:46.191Z,2.95
2023-03-18T23:41:49.013Z,3.04
2023-03-18T23:44:51.540Z,3.14
2023-03-18T23:47:55.409Z,3.10
2023-03-18T23:50:58.026Z,3.07
2023-03-18T23:54:00.916Z,2.97
2023-03-18T23:57:04.624Z,2.95
